createdAt,value
2018-07-17T00:00:38.891Z,101219.87
2018-07-17T00:03:06.932Z,101220.44
2018-07-17T00:05:34.964Z,101224.83
2018-07-17T00:08:03.024Z,101218.58
2018-07-17T00:10:31.048Z,101215.15
2018-07-17T00:12:59.096Z,101216.71
2018-07-17T00:15:27.155Z,101208.86
2018-07-17T00:17:55.208Z,101211.39
2018-07-17T00:20:23.267Z,101207.73
2018-07-17T00:22:51.305Z,101210.28
2018-07-17T00:25:19.337Z,101207.66
2018-07-17T00:27:47.375Z,101207.40
2018-07-17T00:30:15.408Z,101212.34
2018-07-17T00:32:43.452Z,101208.69
2018-07-17T00:35:11.484Z,101203.41
2018-07-17T00:37:39.553Z,101209.75
2018-07-17T00:40:07.600Z,101210.52
2018-07-17T00:42:35.632Z,101203.84
2018-07-17T00:45:03.695Z,101206.20
2018-07-17T00:47:31.727Z,101200.18
2018-07-17T00:49:59.756Z,101202.55
2018-07-17T00:52:27.795Z,101200.30
2018-07-17T00:54:55.839Z,101211.22
2018-07-17T00:57:23.900Z,101205.14
2018-07-17T00:59:51.952Z,101205.91
2018-07-17T01:02:25.301Z,101205.48
2018-07-17T01:04:58.704Z,101206.80
2018-07-17T01:07:32.132Z,101210.76
2018-07-17T01:10:05.628Z,101206.44
2018-07-17T01:12:32.888Z,101200.56
2018-07-17T01:15:04.063Z,101202.34
2018-07-17T01:17:32.884Z,101197.52
2018-07-17T01:20:00.930Z,101195.45
2018-07-17T01:22:28.969Z,101194.00
2018-07-17T01:24:57.012Z,101197.53
2018-07-17T01:27:25.048Z,101186.09
2018-07-17T01:29:53.088Z,101189.24
2018-07-17T01:32:21.135Z,101190.82
2018-07-17T01:34:49.181Z,101183.16
2018-07-17T01:37:17.239Z,101179.73
2018-07-17T01:39:45.290Z,101183.23
2018-07-17T01:42:13.324Z,101181.98
2018-07-17T01:44:41.364Z,101180.33
2018-07-17T01:47:09.395Z,101177.45
2018-07-17T01:49:37.431Z,101171.60
2018-07-17T01:52:05.724Z,101171.75
2018-07-17T01:54:33.752Z,101175.28
2018-07-17T01:57:01.796Z,101177.64
2018-07-17T01:59:29.851Z,101177.38
2018-07-17T02:01:57.925Z,101178.49
2018-07-17T02:04:25.994Z,101179.22
2018-07-17T02:06:54.024Z,101179.98
2018-07-17T02:09:22.063Z,101181.90
2018-07-17T02:11:50.083Z,101187.49
2018-07-17T02:14:18.123Z,101189.47
2018-07-17T02:16:46.150Z,101193.43
2018-07-17T02:19:14.199Z,101185.80
2018-07-17T02:21:42.241Z,101187.72
2018-07-17T02:24:10.282Z,101192.64
2018-07-17T02:26:38.311Z,101192.95
2018-07-17T02:29:06.365Z,101186.49
2018-07-17T02:31:34.431Z,101185.47
2018-07-17T02:34:02.496Z,101179.45
2018-07-17T02:36:30.587Z,101176.56
2018-07-17T02:38:58.560Z,101180.11
2018-07-17T02:41:26.604Z,101181.06
2018-07-17T02:43:54.640Z,101180.39
2018-07-17T02:46:22.696Z,101177.16
2018-07-17T02:48:50.724Z,101173.48
2018-07-17T02:51:18.755Z,101176.02
2018-07-17T02:53:46.792Z,101166.48
2018-07-17T02:56:14.825Z,101172.59
2018-07-17T02:58:42.866Z,101171.70
2018-07-17T03:01:11.011Z,101164.66
2018-07-17T03:03:39.054Z,101173.17
2018-07-17T03:06:07.139Z,101166.34
2018-07-17T03:08:35.176Z,101171.48
2018-07-17T03:11:03.228Z,101171.27
2018-07-17T03:13:31.249Z,101172.94
2018-07-17T03:15:59.272Z,101172.06
2018-07-17T03:18:27.331Z,101175.59
2018-07-17T03:20:55.407Z,101170.29
2018-07-17T03:23:23.455Z,101172.30
2018-07-17T03:25:51.502Z,101174.27
2018-07-17T03:28:19.554Z,101181.01
2018-07-17T03:30:47.580Z,101172.19
2018-07-17T03:33:15.626Z,101173.96
2018-07-17T03:35:43.661Z,101182.33
2018-07-17T03:38:11.688Z,101182.47
2018-07-17T03:40:39.736Z,101183.42
2018-07-17T03:43:07.765Z,101187.40
2018-07-17T03:45:35.796Z,101181.58
2018-07-17T03:48:03.867Z,101181.58
2018-07-17T03:50:31.908Z,101185.77
2018-07-17T03:52:59.952Z,101180.19
2018-07-17T03:55:34.812Z,101179.40
2018-07-17T03:58:02.831Z,101180.80
2018-07-17T04:00:30.876Z,101180.56
2018-07-17T04:02:58.969Z,101179.09
2018-07-17T04:05:26.948Z,101185.25
2018-07-17T04:07:54.972Z,101178.85
2018-07-17T04:10:23.012Z,101174.33
2018-07-17T04:12:51.035Z,101171.38
2018-07-17T04:15:19.072Z,101168.58
2018-07-17T04:17:47.107Z,101170.08
2018-07-17T04:20:15.155Z,101172.94
2018-07-17T04:22:43.207Z,101176.37
2018-07-17T04:25:11.307Z,101176.48
2018-07-17T04:27:39.332Z,101183.29
2018-07-17T04:30:07.420Z,101184.41
2018-07-17T04:32:35.460Z,101178.32
2018-07-17T04:35:03.496Z,101177.67
2018-07-17T04:37:31.517Z,101185.16
2018-07-17T04:39:59.558Z,101183.45
2018-07-17T04:42:27.578Z,101180.97
2018-07-17T04:44:55.637Z,101192.91
2018-07-17T04:47:23.663Z,101187.62
2018-07-17T04:49:51.708Z,101186.59
2018-07-17T04:52:19.748Z,101192.54
2018-07-17T04:54:47.793Z,101184.86
2018-07-17T04:57:15.816Z,101176.83
2018-07-17T04:59:43.879Z,101183.21
2018-07-17T05:02:11.924Z,101185.19
2018-07-17T05:04:39.983Z,101193.72
2018-07-17T05:07:08.021Z,101187.86
2018-07-17T05:09:36.061Z,101192.48
2018-07-17T05:12:04.095Z,101195.91
2018-07-17T05:14:32.143Z,101199.31
2018-07-17T05:17:00.173Z,101201.33
2018-07-17T05:19:28.202Z,101200.97
2018-07-17T05:21:56.251Z,101197.17
2018-07-17T05:24:24.281Z,101198.78
2018-07-17T05:26:52.324Z,101191.16
2018-07-17T05:29:20.366Z,101195.38
2018-07-17T05:31:48.420Z,101201.98
2018-07-17T05:34:16.432Z,101200.09
2018-07-17T05:36:44.472Z,101197.84
2018-07-17T05:39:12.540Z,101203.41
2018-07-17T05:41:40.587Z,101201.94
2018-07-17T05:44:08.822Z,101204.27
2018-07-17T05:46:36.869Z,101205.42
2018-07-17T05:49:04.905Z,101194.89
2018-07-17T05:51:32.959Z,101203.20
2018-07-17T05:54:00.999Z,101203.30
2018-07-17T05:56:29.044Z,101209.60
2018-07-17T05:58:57.156Z,101213.90
2018-07-17T06:01:25.209Z,101205.16
2018-07-17T06:03:53.248Z,101203.86
2018-07-17T06:06:21.301Z,101201.73
2018-07-17T06:08:49.332Z,101199.40
2018-07-17T06:11:17.393Z,101201.64
2018-07-17T06:13:45.432Z,101207.73
2018-07-17T06:16:13.484Z,101203.98
2018-07-17T06:18:41.553Z,101200.80
2018-07-17T06:21:09.683Z,101203.47
2018-07-17T06:23:37.712Z,101205.12
2018-07-17T06:26:06.165Z,101215.59
2018-07-17T06:28:34.291Z,101217.03
2018-07-17T06:31:02.336Z,101220.86
2018-07-17T06:33:30.380Z,101221.28
2018-07-17T06:35:58.435Z,101213.24
2018-07-17T06:38:26.483Z,101222.50
2018-07-17T06:40:54.527Z,101218.45
2018-07-17T06:43:22.572Z,101213.80
2018-07-17T06:45:50.619Z,101206.53
2018-07-17T06:48:18.680Z,101202.45
2018-07-17T06:50:46.806Z,101205.44
2018-07-17T06:53:14.787Z,101208.21
2018-07-17T06:55:42.832Z,101210.94
2018-07-17T06:58:10.899Z,101215.12
2018-07-17T07:00:38.979Z,101211.79
2018-07-17T07:03:07.019Z,101208.27
2018-07-17T07:05:35.255Z,101214.20
2018-07-17T07:08:03.284Z,101213.48
2018-07-17T07:10:31.348Z,101213.95
2018-07-17T07:12:59.408Z,101215.60
2018-07-17T07:15:27.475Z,101222.09
2018-07-17T07:17:55.526Z,101226.73
2018-07-17T07:20:23.592Z,101223.89
2018-07-17T07:22:51.673Z,101224.91
2018-07-17T07:25:19.707Z,101224.31
2018-07-17T07:27:47.813Z,101225.71
2018-07-17T07:30:15.848Z,101227.53
2018-07-17T07:32:43.909Z,101220.92
2018-07-17T07:35:11.953Z,101222.41
2018-07-17T07:37:39.996Z,101213.33
2018-07-17T07:40:08.044Z,101208.76
2018-07-17T07:42:36.092Z,101210.73
2018-07-17T07:45:04.160Z,101216.91
2018-07-17T07:47:32.227Z,101213.82
2018-07-17T07:50:00.264Z,101214.38
2018-07-17T07:52:28.312Z,101217.44
2018-07-17T07:54:56.348Z,101217.95
2018-07-17T07:57:24.396Z,101212.45
2018-07-17T07:59:52.436Z,101217.55
2018-07-17T08:02:20.484Z,101218.23
2018-07-17T08:04:48.536Z,101217.00
2018-07-17T08:07:16.592Z,101210.39
2018-07-17T08:09:44.671Z,101209.07
2018-07-17T08:12:12.773Z,101202.84
2018-07-17T08:14:40.764Z,101205.67
2018-07-17T08:17:08.815Z,101201.06
2018-07-17T08:19:36.859Z,101202.92
2018-07-17T08:22:04.919Z,101203.34
2018-07-17T08:24:32.996Z,101203.66
2018-07-17T08:27:01.060Z,101206.45
2018-07-17T08:29:29.114Z,101203.29
2018-07-17T08:31:57.171Z,101206.91
2018-07-17T08:34:25.232Z,101204.38
2018-07-17T08:36:53.300Z,101196.92
2018-07-17T08:39:21.340Z,101196.41
2018-07-17T08:41:49.412Z,101195.78
2018-07-17T08:44:17.487Z,101193.42
2018-07-17T08:46:45.563Z,101194.73
2018-07-17T08:49:13.631Z,101193.33
2018-07-17T08:51:41.705Z,101190.91
2018-07-17T08:54:09.844Z,101195.01
2018-07-17T08:56:37.907Z,101191.53
2018-07-17T08:59:06.039Z,101188.56
2018-07-17T09:01:34.318Z,101188.89
2018-07-17T09:04:03.385Z,101195.09
2018-07-17T09:06:31.448Z,101193.48
2018-07-17T09:09:00.367Z,101190.25
2018-07-17T09:11:28.448Z,101197.08
2018-07-17T09:13:56.504Z,101193.34
2018-07-17T09:16:27.064Z,101199.50
2018-07-17T09:18:55.442Z,101198.17
2018-07-17T09:24:34.499Z,101196.71
2018-07-17T09:27:02.572Z,101195.52
2018-07-17T09:29:30.612Z,101192.89
2018-07-17T09:31:58.647Z,101196.23
2018-07-17T09:34:26.698Z,101193.27
2018-07-17T09:36:54.907Z,101196.30
2018-07-17T09:39:22.960Z,101196.72
2018-07-17T09:41:50.992Z,101191.66
2018-07-17T09:44:19.079Z,101192.89
2018-07-17T09:46:47.095Z,101192.63
2018-07-17T09:49:15.136Z,101197.59
2018-07-17T09:51:43.172Z,101196.20
2018-07-17T09:54:11.282Z,101199.95
2018-07-17T09:56:39.272Z,101195.53
2018-07-17T09:59:07.337Z,101189.80
2018-07-17T10:01:40.690Z,101198.06
2018-07-17T10:04:08.743Z,101198.59
2018-07-17T10:06:36.770Z,101195.50
2018-07-17T10:09:06.369Z,101196.26
2018-07-17T10:11:34.416Z,101193.00
2018-07-17T10:14:02.473Z,101196.43
2018-07-17T10:16:30.532Z,101198.08
2018-07-17T10:18:58.580Z,101192.90
2018-07-17T10:21:26.628Z,101198.50
2018-07-17T10:23:54.748Z,101193.77
2018-07-17T10:26:22.818Z,101191.15
2018-07-17T10:28:50.839Z,101187.63
2018-07-17T10:31:18.880Z,101186.73
2018-07-17T10:33:46.929Z,101191.95
2018-07-17T10:36:14.956Z,101186.55
2018-07-17T10:38:43.061Z,101185.24
2018-07-17T10:41:11.076Z,101180.55
2018-07-17T10:43:39.124Z,101181.99
2018-07-17T10:46:07.400Z,101181.79
2018-07-17T10:48:35.472Z,101188.41
2018-07-17T10:51:03.503Z,101189.00
2018-07-17T10:53:31.563Z,101202.82
2018-07-17T10:55:59.612Z,101198.45
2018-07-17T10:58:27.678Z,101186.63
2018-07-17T11:00:55.742Z,101186.27
2018-07-17T11:03:23.824Z,101185.91
2018-07-17T11:05:51.866Z,101183.88
2018-07-17T11:08:19.992Z,101186.18
2018-07-17T11:10:47.965Z,101187.25
2018-07-17T11:13:16.020Z,101189.21
2018-07-17T11:15:44.060Z,101184.34
2018-07-17T11:18:12.119Z,101183.48
2018-07-17T11:20:40.164Z,101181.67
2018-07-17T11:23:08.231Z,101181.05
2018-07-17T11:25:36.277Z,101180.84
2018-07-17T11:28:04.328Z,101182.81
2018-07-17T11:30:32.408Z,101177.17
2018-07-17T11:33:00.467Z,101171.41
2018-07-17T11:35:28.543Z,101171.48
2018-07-17T11:37:56.627Z,101177.49
2018-07-17T11:40:24.681Z,101165.71
2018-07-17T11:42:52.956Z,101163.71
2018-07-17T11:45:20.996Z,101161.63
2018-07-17T11:47:49.053Z,101160.41
2018-07-17T11:50:17.142Z,101166.34
2018-07-17T11:52:45.178Z,101162.88
2018-07-17T11:55:13.259Z,101165.67
2018-07-17T11:57:41.316Z,101159.91
2018-07-17T12:00:09.380Z,101168.09
2018-07-17T12:02:37.440Z,101157.93
2018-07-17T12:05:05.528Z,101166.72
2018-07-17T12:07:33.583Z,101158.54
2018-07-17T12:10:01.629Z,101155.79
2018-07-17T12:12:29.680Z,101153.73
2018-07-17T12:14:57.739Z,101157.32
2018-07-17T12:17:25.795Z,101155.08
2018-07-17T12:19:53.919Z,101155.19
2018-07-17T12:22:21.932Z,101160.54
2018-07-17T12:24:50.001Z,101149.59
2018-07-17T12:27:18.052Z,101151.23
2018-07-17T12:29:46.149Z,101156.45
2018-07-17T12:32:14.212Z,101145.75
2018-07-17T12:34:42.268Z,101148.87
2018-07-17T12:37:10.391Z,101148.83
2018-07-17T12:39:38.444Z,101145.15
2018-07-17T12:42:06.528Z,101145.12
2018-07-17T12:44:34.612Z,101143.92
2018-07-17T12:47:02.650Z,101140.33
2018-07-17T12:49:30.696Z,101134.69
2018-07-17T12:51:58.751Z,101143.89
2018-07-17T12:54:26.827Z,101148.22
2018-07-17T12:56:54.861Z,101139.23
2018-07-17T12:59:22.920Z,101133.67
2018-07-17T13:01:50.980Z,101146.68
2018-07-17T13:04:19.066Z,101135.83
2018-07-17T13:06:47.124Z,101139.11
2018-07-17T13:09:15.205Z,101139.44
2018-07-17T13:11:43.247Z,101131.80
2018-07-17T13:14:11.304Z,101134.17
2018-07-17T13:16:39.386Z,101132.47
2018-07-17T13:19:07.496Z,101134.50
2018-07-17T13:21:35.556Z,101134.80
2018-07-17T13:24:03.611Z,101134.04
2018-07-17T13:26:31.671Z,101131.38
2018-07-17T13:28:59.721Z,101125.78
2018-07-17T13:31:27.789Z,101122.78
2018-07-17T13:33:55.862Z,101128.03
2018-07-17T13:36:23.939Z,101126.66
2018-07-17T13:38:51.983Z,101123.58
2018-07-17T13:41:20.060Z,101119.05
2018-07-17T13:43:48.194Z,101122.87
2018-07-17T13:46:16.204Z,101121.00
2018-07-17T13:48:44.275Z,101124.39
2018-07-17T13:51:12.345Z,101114.98
2018-07-17T13:53:40.432Z,101112.92
2018-07-17T13:56:08.573Z,101123.22
2018-07-17T13:58:36.571Z,101116.02
2018-07-17T14:01:04.660Z,101118.97
2018-07-17T14:03:32.717Z,101113.88
2018-07-17T14:06:00.766Z,101110.78
2018-07-17T14:08:28.845Z,101110.47
2018-07-17T14:10:56.927Z,101104.86
2018-07-17T14:13:24.988Z,101115.36
2018-07-17T14:15:53.072Z,101110.91
2018-07-17T14:18:21.116Z,101104.89
2018-07-17T14:20:49.195Z,101099.40
2018-07-17T14:23:17.263Z,101098.86
2018-07-17T14:25:45.341Z,101100.05
2018-07-17T14:28:13.396Z,101099.28
2018-07-17T14:30:41.464Z,101109.26
2018-07-17T14:33:09.520Z,101106.73
2018-07-17T14:35:37.579Z,101100.40
2018-07-17T14:38:05.644Z,101096.97
2018-07-17T14:40:33.704Z,101096.48
2018-07-17T14:43:01.744Z,101093.59
2018-07-17T14:45:29.800Z,101097.95
2018-07-17T14:47:57.844Z,101090.44
2018-07-17T14:50:25.899Z,101090.33
2018-07-17T14:52:53.953Z,101090.53
2018-07-17T14:55:22.004Z,101091.81
2018-07-17T14:57:50.060Z,101092.84
2018-07-17T15:00:18.191Z,101075.50
2018-07-17T15:02:46.209Z,101083.09
2018-07-17T15:05:14.240Z,101080.56
2018-07-17T15:07:42.307Z,101076.73
2018-07-17T15:10:10.402Z,101077.89
2018-07-17T15:12:38.448Z,101078.45
2018-07-17T15:15:06.944Z,101087.47
2018-07-17T15:17:34.996Z,101070.85
2018-07-17T15:20:03.053Z,101077.34
2018-07-17T15:22:31.143Z,101073.66
2018-07-17T15:24:59.195Z,101065.26
2018-07-17T15:27:27.249Z,101068.94
2018-07-17T15:29:55.304Z,101070.22
2018-07-17T15:32:23.383Z,101078.58
2018-07-17T15:34:51.471Z,101077.02
2018-07-17T15:37:19.528Z,101067.80
2018-07-17T15:39:47.568Z,101066.44
2018-07-17T15:42:15.643Z,101066.05
2018-07-17T15:44:43.695Z,101071.28
2018-07-17T15:47:12.072Z,101074.47
2018-07-17T15:49:40.137Z,101077.84
2018-07-17T15:52:08.188Z,101076.50
2018-07-17T15:54:36.244Z,101073.30
2018-07-17T15:57:04.329Z,101080.63
2018-07-17T15:59:32.408Z,101073.89
2018-07-17T16:02:00.467Z,101074.81
2018-07-17T16:04:28.524Z,101076.89
2018-07-17T16:06:56.640Z,101068.48
2018-07-17T16:09:31.423Z,101074.86
2018-07-17T16:11:59.484Z,101082.51
2018-07-17T16:14:27.688Z,101072.94
2018-07-17T16:16:55.604Z,101077.77
2018-07-17T16:19:23.656Z,101079.39
2018-07-17T16:21:51.756Z,101080.11
2018-07-17T16:24:19.796Z,101077.47
2018-07-17T16:26:47.849Z,101081.23
2018-07-17T16:29:15.893Z,101076.77
2018-07-17T16:31:43.952Z,101077.44
2018-07-17T16:34:12.000Z,101076.81
2018-07-17T16:36:40.102Z,101073.01
2018-07-17T16:39:08.295Z,101067.29
2018-07-17T16:41:36.347Z,101069.10
2018-07-17T16:44:04.407Z,101068.19
2018-07-17T16:46:32.495Z,101066.13
2018-07-17T16:49:00.556Z,101066.92
2018-07-17T16:51:28.600Z,101072.38
2018-07-17T16:53:57.232Z,101072.87
2018-07-17T16:56:25.515Z,101069.20
2018-07-17T16:58:53.559Z,101069.20
2018-07-17T17:01:21.966Z,101072.38
2018-07-17T17:03:49.996Z,101071.93
2018-07-17T17:06:18.046Z,101074.16
2018-07-17T17:08:46.099Z,101070.67
2018-07-17T17:11:14.164Z,101072.10
2018-07-17T17:13:42.235Z,101070.35
2018-07-17T17:16:10.276Z,101067.80
2018-07-17T17:18:38.343Z,101075.94
2018-07-17T17:21:06.424Z,101076.22
2018-07-17T17:23:34.505Z,101072.58
2018-07-17T17:26:02.560Z,101077.17
2018-07-17T17:28:30.615Z,101076.39
2018-07-17T17:30:58.691Z,101076.38
2018-07-17T17:33:26.736Z,101077.52
2018-07-17T17:35:54.800Z,101077.33
2018-07-17T17:38:22.900Z,101071.94
2018-07-17T17:40:50.967Z,101074.30
2018-07-17T17:43:19.012Z,101076.21
2018-07-17T17:45:47.059Z,101085.25
2018-07-17T17:48:15.120Z,101086.03
2018-07-17T17:50:43.182Z,101090.61
2018-07-17T17:53:11.245Z,101091.25
2018-07-17T17:55:39.296Z,101086.12
2018-07-17T17:58:07.660Z,101090.25
2018-07-17T18:00:35.704Z,101093.42
2018-07-17T18:03:03.780Z,101093.88
2018-07-17T18:05:31.843Z,101090.98
2018-07-17T18:07:59.896Z,101097.75
2018-07-17T18:10:27.944Z,101098.38
2018-07-17T18:12:56.005Z,101094.22
2018-07-17T18:15:24.047Z,101088.48
2018-07-17T18:17:52.092Z,101089.73
2018-07-17T18:20:20.132Z,101094.43
2018-07-17T18:22:48.468Z,101105.20
2018-07-17T18:25:16.495Z,101102.93
2018-07-17T18:27:44.556Z,101108.45
2018-07-17T18:30:12.597Z,101105.39
2018-07-17T18:32:40.659Z,101105.78
2018-07-17T18:35:08.714Z,101106.36
2018-07-17T18:37:36.748Z,101110.73
2018-07-17T18:40:04.824Z,101110.97
2018-07-17T18:42:32.877Z,101114.80
2018-07-17T18:45:00.935Z,101111.98
2018-07-17T18:47:28.980Z,101109.34
2018-07-17T18:50:12.311Z,101117.92
2018-07-17T18:52:25.089Z,101116.98
2018-07-17T18:54:53.131Z,101127.75
2018-07-17T18:57:21.188Z,101127.25
2018-07-17T18:59:49.311Z,101123.59
2018-07-17T19:02:17.275Z,101122.80
2018-07-17T19:04:45.331Z,101140.30
2018-07-17T19:07:13.368Z,101165.30
2018-07-17T19:09:41.414Z,101170.83
2018-07-17T19:12:09.457Z,101183.15
2018-07-17T19:14:37.731Z,101191.65
2018-07-17T19:17:05.865Z,101204.22
2018-07-17T19:19:33.924Z,101203.48
2018-07-17T19:22:01.960Z,101215.79
2018-07-17T19:24:37.045Z,101223.63
2018-07-17T19:27:04.999Z,101218.03
2018-07-17T19:29:33.048Z,101220.11
2018-07-17T19:32:01.099Z,101224.20
2018-07-17T19:34:29.454Z,101229.47
2018-07-17T19:36:57.489Z,101235.84
2018-07-17T19:39:25.532Z,101242.13
2018-07-17T19:41:53.593Z,101245.91
2018-07-17T19:44:21.677Z,101252.39
2018-07-17T19:46:49.748Z,101260.94
2018-07-17T19:49:17.788Z,101263.50
2018-07-17T19:51:45.823Z,101254.78
2018-07-17T19:54:13.872Z,101257.41
2018-07-17T19:56:41.930Z,101252.62
2018-07-17T19:59:09.992Z,101254.91
2018-07-17T20:01:38.052Z,101251.58
2018-07-17T20:04:06.396Z,101255.05
2018-07-17T20:06:34.440Z,101253.98
2018-07-17T20:09:02.508Z,101260.50
2018-07-17T20:11:30.580Z,101272.05
2018-07-17T20:13:58.640Z,101264.05
2018-07-17T20:16:26.688Z,101268.92
2018-07-17T20:18:54.739Z,101277.23
2018-07-17T20:21:22.783Z,101270.73
2018-07-17T20:23:50.836Z,101270.55
2018-07-17T20:26:18.883Z,101272.55
2018-07-17T20:28:46.978Z,101277.19
2018-07-17T20:31:15.078Z,101274.40
2018-07-17T20:33:43.187Z,101282.09
2018-07-17T20:36:11.212Z,101281.95
2018-07-17T20:38:39.247Z,101280.55
2018-07-17T20:41:07.356Z,101280.16
2018-07-17T20:43:35.392Z,101282.38
2018-07-17T20:46:03.478Z,101277.39
2018-07-17T20:48:31.516Z,101274.39
2018-07-17T20:50:59.591Z,101280.45
2018-07-17T20:53:27.636Z,101282.68
2018-07-17T20:55:55.723Z,101282.27
2018-07-17T20:58:23.791Z,101276.40
2018-07-17T21:00:51.893Z,101276.82
2018-07-17T21:03:19.936Z,101287.52
2018-07-17T21:05:48.000Z,101290.37
2018-07-17T21:08:16.912Z,101289.16
2018-07-17T21:10:44.967Z,101295.63
2018-07-17T21:13:13.136Z,101297.25
2018-07-17T21:15:41.060Z,101288.17
2018-07-17T21:18:09.087Z,101294.21
2018-07-17T21:20:37.159Z,101303.91
2018-07-17T21:23:05.211Z,101298.68
2018-07-17T21:25:33.284Z,101309.39
2018-07-17T21:28:01.363Z,101315.32
2018-07-17T21:30:29.407Z,101319.95
2018-07-17T21:32:57.480Z,101324.16
2018-07-17T21:35:25.524Z,101332.23
2018-07-17T21:37:53.561Z,101334.28
2018-07-17T21:40:21.648Z,101337.48
2018-07-17T21:42:49.685Z,101335.50
2018-07-17T21:45:17.735Z,101346.80
2018-07-17T21:47:45.775Z,101349.20
2018-07-17T21:50:13.827Z,101345.77
2018-07-17T21:52:41.880Z,101348.16
2018-07-17T21:55:09.928Z,101354.83
2018-07-17T21:57:37.982Z,101351.45
2018-07-17T22:00:07.928Z,101346.84
2018-07-17T22:02:35.984Z,101349.47
2018-07-17T22:05:04.039Z,101351.70
2018-07-17T22:07:32.080Z,101345.05
2018-07-17T22:10:00.121Z,101346.47
2018-07-17T22:12:28.160Z,101348.05
2018-07-17T22:14:56.204Z,101341.81
2018-07-17T22:17:24.237Z,101344.00
2018-07-17T22:19:52.309Z,101348.03
2018-07-17T22:22:20.386Z,101348.87
2018-07-17T22:24:48.420Z,101352.11
2018-07-17T22:27:16.507Z,101349.31
2018-07-17T22:29:44.542Z,101353.33
2018-07-17T22:32:12.615Z,101345.88
2018-07-17T22:34:40.727Z,101341.06
2018-07-17T22:37:08.842Z,101345.47
2018-07-17T22:39:36.903Z,101339.82
2018-07-17T22:42:04.971Z,101337.41
2018-07-17T22:44:33.008Z,101340.64
2018-07-17T22:47:01.056Z,101334.59
2018-07-17T22:49:29.097Z,101334.98
2018-07-17T22:51:57.167Z,101326.73
2018-07-17T22:54:25.223Z,101327.72
2018-07-17T22:56:53.291Z,101340.38
2018-07-17T22:59:21.631Z,101346.23
2018-07-17T23:01:49.699Z,101354.28
2018-07-17T23:04:18.066Z,101354.69
2018-07-17T23:06:46.164Z,101360.32
2018-07-17T23:09:14.220Z,101361.31
2018-07-17T23:11:42.285Z,101363.54
2018-07-17T23:14:10.335Z,101364.33
2018-07-17T23:16:38.435Z,101367.07
2018-07-17T23:19:06.773Z,101367.27
2018-07-17T23:21:34.833Z,101365.27
2018-07-17T23:24:02.876Z,101368.48
2018-07-17T23:26:31.105Z,101368.73
2018-07-17T23:28:59.248Z,101368.73
2018-07-17T23:31:27.312Z,101371.11
2018-07-17T23:33:55.404Z,101368.89
2018-07-17T23:36:23.525Z,101364.25
2018-07-17T23:38:51.541Z,101374.84
2018-07-17T23:41:19.604Z,101371.77
2018-07-17T23:43:47.640Z,101369.33
2018-07-17T23:46:15.715Z,101358.30
2018-07-17T23:48:43.756Z,101360.13
2018-07-17T23:51:11.812Z,101367.34
2018-07-17T23:53:39.852Z,101371.73
2018-07-17T23:56:07.909Z,101363.88
2018-07-17T23:58:36.014Z,101365.67
